createdAt,value
2022-11-18T00:00:17.589Z,7.30
2022-11-18T00:02:43.973Z,7.27
2022-11-18T00:05:10.398Z,7.23
2022-11-18T00:07:36.773Z,7.21
2022-11-18T00:10:03.306Z,7.37
2022-11-18T00:12:31.002Z,7.32
2022-11-18T00:14:57.344Z,7.17
2022-11-18T00:17:23.670Z,7.03
2022-11-18T00:19:49.984Z,7.12
2022-11-18T00:22:16.334Z,7.07
2022-11-18T00:24:42.653Z,7.11
2022-11-18T00:27:09.096Z,7.04
2022-11-18T00:29:37.029Z,7.05
2022-11-18T00:32:03.448Z,6.98
2022-11-18T00:34:29.782Z,7.14
2022-11-18T00:36:56.141Z,7.29
2022-11-18T00:39:22.690Z,7.25
2022-11-18T00:41:49.079Z,7.26
2022-11-18T00:44:15.585Z,7.25
2022-11-18T00:46:43.289Z,7.19
2022-11-18T00:49:09.750Z,7.11
2022-11-18T00:51:36.377Z,7.07
2022-11-18T00:54:03.286Z,7.10
2022-11-18T00:56:29.637Z,7.01
2022-11-18T00:58:55.982Z,6.98
2022-11-18T01:01:22.515Z,6.96
2022-11-18T01:03:50.223Z,7.00
2022-11-18T01:06:16.680Z,6.98
2022-11-18T01:08:43.077Z,6.96
2022-11-18T01:11:09.413Z,6.94
2022-11-18T01:13:35.727Z,6.95
2022-11-18T01:16:02.076Z,6.92
2022-11-18T01:18:30.794Z,6.93
2022-11-18T01:21:01.409Z,7.01
2022-11-18T01:23:27.821Z,6.88
2022-11-18T01:25:55.218Z,6.86
2022-11-18T01:28:23.956Z,6.90
2022-11-18T01:30:50.617Z,6.94
2022-11-18T01:33:16.982Z,6.99
2022-11-18T01:35:43.764Z,6.94
2022-11-18T01:38:12.054Z,6.94
2022-11-18T01:40:38.848Z,6.88
2022-11-18T01:43:10.406Z,6.88
2022-11-18T01:45:38.151Z,6.89
2022-11-18T01:48:05.787Z,6.91
2022-11-18T01:50:32.646Z,6.93
2022-11-18T01:53:01.395Z,6.97
2022-11-18T01:55:31.437Z,6.97
2022-11-18T01:58:01.799Z,7.01
2022-11-18T02:00:28.142Z,7.01
2022-11-18T02:02:54.549Z,6.90
2022-11-18T02:05:21.531Z,6.84
2022-11-18T02:07:47.913Z,6.93
2022-11-18T02:10:19.384Z,6.93
2022-11-18T02:12:47.169Z,6.88
2022-11-18T02:15:13.560Z,6.87
2022-11-18T02:17:45.457Z,6.84
2022-11-18T02:20:30.904Z,6.76
2022-11-18T02:23:17.732Z,6.68
2022-11-18T02:25:53.637Z,6.73
2022-11-18T02:28:29.663Z,6.69
2022-11-18T02:30:59.380Z,6.79
2022-11-18T02:33:28.796Z,6.78
2022-11-18T02:35:57.128Z,6.75
2022-11-18T02:38:26.809Z,6.76
2022-11-18T02:40:55.301Z,6.78
2022-11-18T02:43:24.819Z,6.98
2022-11-18T02:45:54.060Z,7.01
2022-11-18T02:48:24.456Z,6.95
2022-11-18T02:50:51.679Z,6.95
2022-11-18T02:53:19.640Z,6.98
2022-11-18T02:55:46.930Z,7.06
2022-11-18T02:58:14.691Z,7.05
2022-11-18T03:00:41.065Z,7.08
2022-11-18T03:03:24.237Z,7.06
2022-11-18T03:05:52.874Z,6.90
2022-11-18T03:08:22.640Z,6.88
2022-11-18T03:10:53.463Z,6.82
2022-11-18T03:13:24.516Z,6.78
2022-11-18T03:15:54.341Z,6.74
2022-11-18T03:18:25.339Z,6.71
2022-11-18T03:20:55.515Z,6.81
2022-11-18T03:23:24.882Z,6.70
2022-11-18T03:25:54.057Z,6.74
2022-11-18T03:28:24.888Z,6.76
2022-11-18T03:30:55.070Z,6.68
2022-11-18T03:33:24.276Z,6.72
2022-11-18T03:35:52.795Z,6.69
2022-11-18T03:38:24.188Z,6.70
2022-11-18T03:40:54.563Z,6.64
2022-11-18T03:43:22.309Z,6.67
2022-11-18T03:45:50.359Z,6.72
2022-11-18T03:48:17.952Z,6.74
2022-11-18T03:50:47.039Z,6.75
2022-11-18T03:53:14.177Z,6.85
2022-11-18T03:55:43.156Z,6.87
2022-11-18T03:58:13.637Z,6.92
2022-11-18T04:00:41.906Z,6.83
2022-11-18T04:03:08.454Z,6.88
2022-11-18T04:05:37.595Z,6.91
2022-11-18T04:08:05.776Z,6.90
2022-11-18T04:10:34.783Z,6.89
2022-11-18T04:13:06.690Z,6.87
2022-11-18T04:15:36.646Z,6.82
2022-11-18T04:18:03.047Z,6.85
2022-11-18T04:20:29.417Z,6.85
2022-11-18T04:22:55.727Z,6.79
2022-11-18T04:25:22.069Z,6.82
2022-11-18T04:27:48.390Z,6.81
2022-11-18T04:30:16.479Z,6.85
2022-11-18T04:32:42.849Z,6.82
2022-11-18T04:35:09.332Z,6.80
2022-11-18T04:37:35.652Z,6.86
2022-11-18T04:40:02.026Z,6.83
2022-11-18T04:42:28.379Z,6.80
2022-11-18T04:44:54.723Z,6.80
2022-11-18T04:47:22.403Z,6.74
2022-11-18T04:49:48.792Z,6.72
2022-11-18T04:52:15.379Z,6.70
2022-11-18T04:54:41.753Z,6.73
2022-11-18T04:57:08.499Z,6.72
2022-11-18T04:59:34.978Z,6.78
2022-11-18T05:02:01.442Z,6.81
2022-11-18T05:04:29.897Z,6.76
2022-11-18T05:06:56.659Z,6.79
2022-11-18T05:09:27.212Z,6.71
2022-11-18T05:11:56.736Z,6.74
2022-11-18T05:14:25.175Z,6.72
2022-11-18T05:16:51.501Z,6.70
2022-11-18T05:19:18.258Z,6.70
2022-11-18T05:21:46.093Z,6.75
2022-11-18T05:24:12.453Z,6.70
2022-11-18T05:26:38.848Z,6.77
2022-11-18T05:29:05.587Z,6.82
2022-11-18T05:31:32.045Z,6.72
2022-11-18T05:33:58.367Z,6.66
2022-11-18T05:36:24.928Z,6.70
2022-11-18T05:38:52.620Z,6.71
2022-11-18T05:41:19.417Z,6.66
2022-11-18T05:43:45.780Z,6.63
2022-11-18T05:46:12.149Z,6.65
2022-11-18T05:48:38.499Z,6.61
2022-11-18T05:51:04.997Z,6.63
2022-11-18T05:53:31.321Z,6.64
2022-11-18T05:56:15.754Z,6.65
2022-11-18T05:58:42.064Z,6.65
2022-11-18T06:01:08.621Z,6.66
2022-11-18T06:03:38.057Z,6.68
2022-11-18T06:06:05.384Z,6.67
2022-11-18T06:08:35.334Z,6.76
2022-11-18T06:11:03.276Z,6.81
2022-11-18T06:13:35.034Z,6.82
2022-11-18T06:16:01.952Z,6.88
2022-11-18T06:18:30.003Z,6.88
2022-11-18T06:20:58.094Z,6.86
2022-11-18T06:23:24.527Z,6.90
2022-11-18T06:25:50.875Z,6.85
2022-11-18T06:28:18.947Z,6.91
2022-11-18T06:30:45.336Z,6.96
2022-11-18T06:33:11.659Z,6.99
2022-11-18T06:35:38.036Z,6.97
2022-11-18T06:38:04.489Z,6.91
2022-11-18T06:40:34.673Z,6.96
2022-11-18T06:43:04.934Z,6.94
2022-11-18T06:45:32.806Z,6.97
2022-11-18T06:47:59.212Z,6.96
2022-11-18T06:50:25.557Z,6.98
2022-11-18T06:52:51.980Z,6.98
2022-11-18T06:55:18.569Z,6.98
2022-11-18T06:57:44.951Z,6.99
2022-11-18T07:00:11.908Z,7.01
2022-11-18T07:02:39.628Z,7.02
2022-11-18T07:05:06.196Z,7.01
2022-11-18T07:07:38.961Z,6.99
2022-11-18T07:10:08.752Z,7.02
2022-11-18T07:12:35.098Z,7.04
2022-11-18T07:15:01.578Z,7.08
2022-11-18T07:17:29.552Z,7.08
2022-11-18T07:19:57.257Z,7.09
2022-11-18T07:22:23.605Z,7.16
2022-11-18T07:24:50.104Z,7.33
2022-11-18T07:27:16.567Z,7.25
2022-11-18T07:29:43.050Z,7.22
2022-11-18T07:32:09.410Z,7.24
2022-11-18T07:34:35.737Z,7.24
2022-11-18T07:37:03.451Z,7.28
2022-11-18T07:39:29.929Z,7.35
2022-11-18T07:41:56.282Z,7.40
2022-11-18T07:44:22.817Z,7.41
2022-11-18T07:46:49.228Z,7.47
2022-11-18T07:49:15.958Z,7.51
2022-11-18T07:51:42.459Z,7.57
2022-11-18T07:54:10.926Z,7.65
2022-11-18T07:56:37.540Z,7.68
2022-11-18T07:59:04.088Z,7.70
2022-11-18T08:01:30.582Z,7.83
2022-11-18T08:03:57.654Z,7.92
2022-11-18T08:06:24.200Z,8.03
2022-11-18T08:08:50.518Z,8.16
2022-11-18T08:11:22.205Z,8.16
2022-11-18T08:13:49.248Z,8.20
2022-11-18T08:16:16.653Z,8.34
2022-11-18T08:18:43.461Z,8.49
2022-11-18T08:21:10.095Z,8.61
2022-11-18T08:23:41.723Z,8.77
2022-11-18T08:26:09.733Z,8.97
2022-11-18T08:28:37.555Z,9.14
2022-11-18T08:31:09.086Z,9.23
2022-11-18T08:33:35.433Z,9.27
2022-11-18T08:36:05.094Z,9.28
2022-11-18T08:38:31.430Z,9.23
2022-11-18T08:40:57.997Z,9.15
2022-11-18T08:43:24.366Z,9.03
2022-11-18T08:45:52.067Z,8.94
2022-11-18T08:48:18.426Z,8.86
2022-11-18T08:50:44.749Z,8.83
2022-11-18T08:53:11.081Z,8.78
2022-11-18T08:55:37.408Z,8.87
2022-11-18T08:58:03.771Z,8.74
2022-11-18T09:00:30.115Z,8.72
2022-11-18T09:02:57.826Z,8.67
2022-11-18T09:05:24.207Z,8.69
2022-11-18T09:07:50.607Z,8.55
2022-11-18T09:10:17.010Z,8.47
2022-11-18T09:12:43.370Z,8.55
2022-11-18T09:15:14.466Z,8.69
2022-11-18T09:17:41.546Z,8.66
2022-11-18T09:20:09.920Z,8.65
2022-11-18T09:22:36.690Z,8.62
2022-11-18T09:25:03.297Z,8.64
2022-11-18T09:27:29.639Z,8.60
2022-11-18T09:29:56.014Z,8.56
2022-11-18T09:32:22.350Z,8.63
2022-11-18T09:34:48.684Z,8.63
2022-11-18T09:37:16.411Z,8.74
2022-11-18T09:39:42.768Z,8.80
2022-11-18T09:42:19.959Z,8.84
2022-11-18T09:44:52.753Z,8.80
2022-11-18T09:47:25.323Z,8.78
2022-11-18T09:49:52.045Z,8.71
2022-11-18T09:52:21.780Z,8.74
2022-11-18T09:54:48.168Z,8.71
2022-11-18T09:57:15.647Z,8.81
2022-11-18T09:59:42.709Z,8.69
2022-11-18T10:02:26.702Z,8.62
2022-11-18T10:04:54.230Z,8.55
2022-11-18T10:07:37.285Z,8.60
2022-11-18T10:10:10.130Z,8.66
2022-11-18T10:12:41.913Z,8.60
2022-11-18T10:15:13.063Z,8.58
2022-11-18T10:17:45.446Z,8.65
2022-11-18T10:20:18.356Z,8.70
2022-11-18T10:22:48.971Z,8.48
2022-11-18T10:25:16.314Z,8.42
2022-11-18T10:27:43.428Z,8.34
2022-11-18T10:30:12.622Z,8.38
2022-11-18T10:32:53.089Z,8.33
2022-11-18T10:35:23.290Z,8.46
2022-11-18T10:38:08.343Z,8.46
2022-11-18T10:40:44.346Z,8.49
2022-11-18T10:43:10.746Z,8.48
2022-11-18T10:45:37.139Z,8.45
2022-11-18T10:48:07.765Z,8.51
2022-11-18T10:50:35.681Z,8.48
2022-11-18T10:53:03.701Z,8.60
2022-11-18T10:55:30.294Z,8.42
2022-11-18T10:58:00.258Z,8.44
2022-11-18T11:00:34.206Z,8.49
2022-11-18T11:03:00.748Z,8.38
2022-11-18T11:05:27.249Z,8.45
2022-11-18T11:08:28.859Z,8.50
2022-11-18T11:10:55.274Z,8.51
2022-11-18T11:13:23.734Z,8.48
2022-11-18T11:15:51.459Z,8.56
2022-11-18T11:18:21.301Z,8.45
2022-11-18T11:20:47.682Z,8.51
2022-11-18T11:23:18.942Z,8.61
2022-11-18T11:28:44.140Z,8.58
2022-11-18T11:31:13.651Z,8.60
2022-11-18T11:33:44.589Z,8.60
2022-11-18T11:36:20.999Z,8.49
2022-11-18T11:38:53.903Z,8.46
2022-11-18T11:41:22.227Z,8.52
2022-11-18T11:43:57.049Z,8.43
2022-11-18T11:46:27.716Z,8.33
2022-11-18T11:48:57.045Z,8.32
2022-11-18T11:51:27.740Z,8.32
2022-11-18T11:54:12.783Z,8.32
2022-11-18T11:56:42.601Z,8.38
2022-11-18T11:59:15.578Z,8.29
2022-11-18T12:01:47.059Z,8.29
2022-11-18T12:04:20.145Z,8.31
2022-11-18T12:06:47.176Z,8.20
2022-11-18T12:09:19.279Z,8.08
2022-11-18T12:11:50.523Z,8.24
2022-11-18T12:14:25.916Z,8.24
2022-11-18T12:16:56.781Z,8.32
2022-11-18T12:19:23.405Z,8.26
2022-11-18T12:21:53.978Z,8.24
2022-11-18T12:24:27.725Z,8.27
2022-11-18T12:26:54.075Z,8.36
2022-11-18T12:29:24.421Z,8.34
2022-11-18T12:31:52.146Z,8.34
2022-11-18T12:34:20.131Z,8.26
2022-11-18T12:36:46.807Z,8.27
2022-11-18T12:39:31.843Z,8.30
2022-11-18T12:41:58.911Z,8.29
2022-11-18T12:44:27.467Z,8.18
2022-11-18T12:46:54.078Z,8.24
2022-11-18T12:49:38.885Z,8.20
2022-11-18T12:52:06.105Z,8.18
2022-11-18T12:54:34.889Z,8.22
2022-11-18T12:57:02.437Z,8.20
2022-11-18T12:59:34.470Z,8.18
2022-11-18T13:02:04.067Z,8.16
2022-11-18T13:04:30.425Z,8.24
2022-11-18T13:06:57.656Z,8.30
2022-11-18T13:09:25.202Z,8.20
2022-11-18T13:11:53.831Z,8.09
2022-11-18T13:14:23.221Z,8.07
2022-11-18T13:16:51.060Z,8.08
2022-11-18T13:19:21.356Z,8.15
2022-11-18T13:21:53.099Z,8.22
2022-11-18T13:24:20.889Z,8.15
2022-11-18T13:26:47.981Z,8.17
2022-11-18T13:29:28.644Z,8.31
2022-11-18T13:32:02.047Z,8.24
2022-11-18T13:34:29.455Z,8.23
2022-11-18T13:36:57.117Z,8.26
2022-11-18T13:39:24.414Z,8.19
2022-11-18T13:42:00.855Z,8.19
2022-11-18T13:44:28.247Z,8.19
2022-11-18T13:46:56.447Z,8.20
2022-11-18T13:49:31.527Z,8.14
2022-11-18T13:51:58.033Z,8.10
2022-11-18T13:54:25.212Z,8.11
2022-11-18T13:56:51.822Z,8.11
2022-11-18T13:59:19.079Z,8.13
2022-11-18T14:01:46.431Z,8.12
2022-11-18T14:04:17.856Z,8.06
2022-11-18T14:06:45.613Z,8.03
2022-11-18T14:09:21.018Z,8.08
2022-11-18T14:11:57.932Z,8.11
2022-11-18T14:14:28.534Z,7.98
2022-11-18T14:17:02.996Z,7.98
2022-11-18T14:19:30.627Z,7.91
2022-11-18T14:22:05.454Z,7.94
2022-11-18T14:24:33.768Z,7.94
2022-11-18T14:27:20.131Z,7.88
2022-11-18T14:29:49.325Z,7.96
2022-11-18T14:32:15.685Z,8.00
2022-11-18T14:34:42.566Z,7.90
2022-11-18T14:37:11.880Z,7.95
2022-11-18T14:39:38.706Z,7.97
2022-11-18T14:42:05.247Z,8.07
2022-11-18T14:44:31.664Z,8.09
2022-11-18T14:46:59.050Z,8.04
2022-11-18T14:49:26.334Z,8.08
2022-11-18T14:51:53.686Z,8.01
2022-11-18T14:54:26.332Z,8.00
2022-11-18T14:56:55.388Z,7.97
2022-11-18T14:59:21.740Z,7.84
2022-11-18T15:01:48.382Z,7.87
2022-11-18T15:04:15.169Z,7.89
2022-11-18T15:06:41.624Z,7.83
2022-11-18T15:09:07.997Z,7.92
2022-11-18T15:11:35.754Z,7.85
2022-11-18T15:14:02.217Z,7.84
2022-11-18T15:16:29.454Z,7.90
2022-11-18T15:18:56.561Z,7.79
2022-11-18T15:21:23.767Z,7.80
2022-11-18T15:23:50.252Z,7.75
2022-11-18T15:26:18.298Z,7.76
2022-11-18T15:28:46.095Z,7.76
2022-11-18T15:31:12.560Z,7.90
2022-11-18T15:33:38.924Z,7.80
2022-11-18T15:36:09.240Z,7.84
2022-11-18T15:38:35.587Z,7.72
2022-11-18T15:41:01.930Z,7.78
2022-11-18T15:43:28.268Z,7.77
2022-11-18T15:45:58.104Z,7.75
2022-11-18T15:48:24.570Z,7.59
2022-11-18T15:50:54.135Z,7.71
2022-11-18T15:53:20.759Z,7.67
2022-11-18T15:55:47.133Z,7.63
2022-11-18T15:58:13.506Z,7.68
2022-11-18T16:00:39.828Z,7.66
2022-11-18T16:03:07.566Z,7.60
2022-11-18T16:05:33.904Z,7.60
2022-11-18T16:08:00.238Z,7.57
2022-11-18T16:10:26.597Z,7.53
2022-11-18T16:12:52.934Z,7.61
2022-11-18T16:15:19.291Z,7.76
2022-11-18T16:17:45.637Z,7.68
2022-11-18T16:20:13.398Z,7.73
2022-11-18T16:22:39.740Z,7.66
2022-11-18T16:25:06.341Z,7.64
2022-11-18T16:27:32.677Z,7.59
2022-11-18T16:29:59.056Z,7.56
2022-11-18T16:32:25.392Z,7.53
2022-11-18T16:34:54.160Z,7.57
2022-11-18T16:37:25.713Z,7.52
2022-11-18T16:39:52.092Z,7.53
2022-11-18T16:42:18.437Z,7.49
2022-11-18T16:44:44.867Z,7.53
2022-11-18T16:47:14.938Z,7.55
2022-11-18T16:49:42.081Z,7.46
2022-11-18T16:52:08.413Z,7.48
2022-11-18T16:54:41.006Z,7.43
2022-11-18T16:57:10.999Z,7.44
2022-11-18T16:59:37.442Z,7.48
2022-11-18T17:02:04.098Z,7.46
2022-11-18T17:04:30.691Z,7.52
2022-11-18T17:06:57.683Z,7.46
2022-11-18T17:09:24.262Z,7.51
2022-11-18T17:11:53.412Z,7.42
2022-11-18T17:14:19.897Z,7.39
2022-11-18T17:16:46.628Z,7.41
2022-11-18T17:19:13.901Z,7.35
2022-11-18T17:21:40.285Z,7.38
2022-11-18T17:24:07.165Z,7.36
2022-11-18T17:26:33.676Z,7.38
2022-11-18T17:29:01.397Z,7.42
2022-11-18T17:31:27.770Z,7.43
2022-11-18T17:33:54.976Z,7.30
2022-11-18T17:36:22.201Z,7.24
2022-11-18T17:38:49.265Z,7.23
2022-11-18T17:41:17.109Z,7.18
2022-11-18T17:43:43.437Z,7.10
2022-11-18T17:46:11.250Z,7.18
2022-11-18T17:48:37.618Z,7.17
2022-11-18T17:51:04.369Z,7.09
2022-11-18T17:53:30.817Z,7.11
2022-11-18T17:56:02.347Z,7.08
2022-11-18T17:58:30.162Z,7.08
2022-11-18T18:00:56.643Z,7.10
2022-11-18T18:03:24.386Z,7.08
2022-11-18T18:05:50.792Z,7.07
2022-11-18T18:08:17.143Z,7.08
2022-11-18T18:10:43.497Z,7.11
2022-11-18T18:13:09.956Z,7.08
2022-11-18T18:15:36.454Z,7.08
2022-11-18T18:18:03.270Z,7.12
2022-11-18T18:20:31.106Z,7.09
2022-11-18T18:22:57.457Z,7.05
2022-11-18T18:25:23.865Z,7.06
2022-11-18T18:27:50.204Z,7.10
2022-11-18T18:30:16.901Z,7.16
2022-11-18T18:32:45.827Z,7.18
2022-11-18T18:35:14.624Z,7.12
2022-11-18T18:37:42.388Z,7.04
2022-11-18T18:40:09.121Z,7.14
2022-11-18T18:42:35.482Z,7.04
2022-11-18T18:45:01.902Z,6.91
2022-11-18T18:47:28.273Z,6.94
2022-11-18T18:49:54.631Z,6.93
2022-11-18T18:52:21.037Z,6.94
2022-11-18T18:54:48.743Z,6.96
2022-11-18T18:57:15.159Z,6.93
2022-11-18T18:59:41.518Z,6.87
2022-11-18T19:02:09.274Z,6.87
2022-11-18T19:04:35.608Z,6.90
2022-11-18T19:07:02.055Z,6.92
2022-11-18T19:09:28.498Z,7.02
2022-11-18T19:11:56.333Z,7.12
2022-11-18T19:14:23.474Z,7.01
2022-11-18T19:16:50.453Z,6.94
2022-11-18T19:19:17.815Z,6.91
2022-11-18T19:21:44.374Z,6.98
2022-11-18T19:24:34.733Z,7.06
2022-11-18T19:26:58.450Z,7.06
2022-11-18T19:29:25.906Z,6.99
2022-11-18T19:31:52.340Z,7.10
2022-11-18T19:34:18.900Z,7.13
2022-11-18T19:36:45.541Z,7.01
2022-11-18T19:39:11.895Z,7.01
2022-11-18T19:41:38.271Z,6.93
2022-11-18T19:44:06.133Z,6.89
2022-11-18T19:46:32.562Z,6.85
2022-11-18T19:48:58.896Z,6.82
2022-11-18T19:51:25.457Z,6.85
2022-11-18T19:53:55.687Z,6.84
2022-11-18T19:56:24.834Z,6.83
2022-11-18T19:58:51.198Z,6.75
2022-11-18T20:01:19.672Z,6.85
2022-11-18T20:03:46.967Z,6.80
2022-11-18T20:06:13.746Z,6.75
2022-11-18T20:08:40.724Z,6.82
2022-11-18T20:11:09.507Z,6.82
2022-11-18T20:13:36.269Z,6.82
2022-11-18T20:16:03.854Z,6.78
2022-11-18T20:18:31.832Z,6.78
2022-11-18T20:21:02.373Z,6.89
2022-11-18T20:23:28.728Z,6.96
2022-11-18T20:25:55.065Z,6.88
2022-11-18T20:28:21.426Z,6.80
2022-11-18T20:30:52.564Z,6.78
2022-11-18T20:33:18.935Z,6.75
2022-11-18T20:35:46.648Z,6.76
2022-11-18T20:38:13.050Z,6.77
2022-11-18T20:40:39.390Z,6.80
2022-11-18T20:43:05.753Z,6.90
2022-11-18T20:45:32.076Z,6.85
2022-11-18T20:47:58.442Z,6.87
2022-11-18T20:50:24.820Z,6.75
2022-11-18T20:52:52.558Z,6.75
2022-11-18T20:55:18.900Z,6.76
2022-11-18T20:57:45.273Z,6.85
2022-11-18T21:00:11.912Z,6.85
2022-11-18T21:02:38.406Z,6.91
2022-11-18T21:05:05.103Z,6.90
2022-11-18T21:07:31.878Z,6.92
2022-11-18T21:09:59.633Z,6.95
2022-11-18T21:12:25.981Z,7.00
2022-11-18T21:14:52.398Z,6.92
2022-11-18T21:17:18.770Z,6.81
2022-11-18T21:19:48.388Z,6.82
2022-11-18T21:22:14.994Z,6.75
2022-11-18T21:24:41.372Z,6.79
2022-11-18T21:27:09.101Z,6.81
2022-11-18T21:29:35.479Z,6.78
2022-11-18T21:32:01.830Z,6.79
2022-11-18T21:34:28.472Z,6.66
2022-11-18T21:36:55.520Z,6.62
2022-11-18T21:39:22.727Z,6.62
2022-11-18T21:41:54.922Z,6.55
2022-11-18T21:44:23.278Z,6.58
2022-11-18T21:46:49.626Z,6.44
2022-11-18T21:49:16.000Z,6.35
2022-11-18T21:51:43.779Z,6.26
2022-11-18T21:54:10.161Z,6.31
2022-11-18T21:59:16.001Z,6.02
2022-11-18T22:01:43.723Z,5.99
2022-11-18T22:04:10.095Z,5.96
2022-11-18T22:06:36.442Z,5.93
2022-11-18T22:09:03.778Z,5.94
2022-11-18T22:11:30.143Z,5.97
2022-11-18T22:13:56.545Z,5.94
2022-11-18T22:16:23.742Z,6.10
2022-11-18T22:18:58.800Z,6.02
2022-11-18T22:21:26.713Z,5.91
2022-11-18T22:23:56.853Z,6.02
2022-11-18T22:26:23.187Z,5.89
2022-11-18T22:28:52.786Z,5.83
2022-11-18T22:31:19.728Z,5.77
2022-11-18T22:33:46.286Z,5.79
2022-11-18T22:36:14.818Z,5.79
2022-11-18T22:38:41.584Z,5.68
2022-11-18T22:41:09.812Z,5.75
2022-11-18T22:43:36.149Z,5.74
2022-11-18T22:46:03.301Z,5.60
2022-11-18T22:48:29.685Z,5.59
2022-11-18T22:50:56.811Z,5.58
2022-11-18T22:53:24.516Z,5.52
2022-11-18T22:55:50.893Z,5.34
2022-11-18T22:58:17.247Z,5.31
2022-11-18T23:00:43.597Z,5.27
2022-11-18T23:03:09.940Z,5.21
2022-11-18T23:05:36.363Z,5.14
2022-11-18T23:08:02.818Z,5.21
2022-11-18T23:10:31.357Z,5.14
2022-11-18T23:12:57.676Z,5.06
2022-11-18T23:15:24.054Z,5.00
2022-11-18T23:17:50.423Z,4.78
2022-11-18T23:20:16.924Z,4.78
2022-11-18T23:22:43.257Z,4.95
2022-11-18T23:25:09.794Z,4.80
2022-11-18T23:27:37.502Z,4.63
2022-11-18T23:30:04.252Z,4.70
2022-11-18T23:32:30.593Z,4.66
2022-11-18T23:34:56.949Z,4.58
2022-11-18T23:37:23.286Z,4.49
2022-11-18T23:39:49.656Z,4.39
2022-11-18T23:42:15.997Z,4.29
2022-11-18T23:44:43.725Z,4.51
2022-11-18T23:47:10.059Z,4.38
2022-11-18T23:49:36.434Z,4.36
2022-11-18T23:52:02.826Z,4.15
2022-11-18T23:54:29.156Z,4.09
2022-11-18T23:56:55.517Z,4.06
2022-11-18T23:59:22.077Z,3.94
